Time;durP1;ratioP1;P1;durP2;ratioP2;P2;SDS_P1;SDS_P2;PMS_P1;PMS_P2;Temp;Humidity;BMP_temperature;BMP_pressure;BME280_temperature;BME280_humidity;BME280_pressure;Samples;Min_cycle;Max_cycle;Signal;HPM_P1;HPM_P2
2022/06/03 00:02:14;;;;;;;6.03;5.40;;;;;;;;;;5100822;28;20577;-66
2022/06/03 00:05:03;;;;;;;5.73;4.47;;;;;;;;;;5100879;28;20223;-66
2022/06/03 00:07:37;;;;;;;8.50;5.07;;;;;;;;;;5096417;28;20208;-66
2022/06/03 00:10:14;;;;;;;6.57;4.77;;;;;;;;;;5100533;28;20205;-66
2022/06/03 00:12:48;;;;;;;5.47;4.40;;;;;;;;;;5100959;28;20208;-66
2022/06/03 00:15:20;;;;;;;5.97;4.90;;;;;;;;;;5100897;28;20256;-66
2022/06/03 00:18:03;;;;;;;6.73;4.10;;;;;;;;;;5100735;28;20662;-65
2022/06/03 00:20:47;;;;;;;6.57;4.87;;;;;;;;;;5094840;28;20235;-66
2022/06/03 00:23:33;;;;;;;6.90;4.83;;;;;;;;;;5100131;28;20251;-66
2022/06/03 00:26:12;;;;;;;6.37;5.10;;;;;;;;;;5087865;28;20233;-66
2022/06/03 00:28:50;;;;;;;8.03;5.30;;;;;;;;;;5100936;28;20209;-66
2022/06/03 00:31:28;;;;;;;5.53;4.80;;;;;;;;;;5101452;28;20212;-66
2022/06/03 00:34:07;;;;;;;8.63;5.27;;;;;;;;;;5100523;28;20202;-65
2022/06/03 00:36:41;;;;;;;6.23;4.80;;;;;;;;;;5100252;28;20694;-66
2022/06/03 00:39:23;;;;;;;5.60;4.67;;;;;;;;;;5099976;28;20589;-65
2022/06/03 00:41:56;;;;;;;4.90;4.50;;;;;;;;;;5100315;28;20648;-65
2022/06/03 00:44:39;;;;;;;6.10;4.93;;;;;;;;;;5100556;28;20237;-65
2022/06/03 00:47:26;;;;;;;8.30;4.87;;;;;;;;;;5087324;28;20265;-66
2022/06/03 00:50:09;;;;;;;4.93;4.43;;;;;;;;;;5099834;28;20262;-65
2022/06/03 00:52:52;;;;;;;6.80;5.33;;;;;;;;;;5100161;28;20241;-65
2022/06/03 00:55:37;;;;;;;5.90;5.30;;;;;;;;;;5099704;28;20212;-66
2022/06/03 00:58:13;;;;;;;6.50;4.83;;;;;;;;;;5100068;28;20214;-66
2022/06/03 01:00:52;;;;;;;7.40;4.70;;;;;;;;;;5100172;28;20245;-66
2022/06/03 01:03:25;;;;;;;10.83;5.27;;;;;;;;;;5100068;28;20213;-65
2022/06/03 01:06:10;;;;;;;5.93;4.90;;;;;;;;;;5099121;28;20232;-65
2022/06/03 01:08:44;;;;;;;6.00;4.70;;;;;;;;;;5099365;28;20318;-65
2022/06/03 01:11:28;;;;;;;5.80;5.23;;;;;;;;;;5099703;28;20289;-65
2022/06/03 01:14:11;;;;;;;6.03;4.57;;;;;;;;;;5099858;28;20207;-66
2022/06/03 01:16:50;;;;;;;4.83;4.43;;;;;;;;;;5099390;28;20256;-66
2022/06/03 01:19:50;;;;;;;6.23;4.90;;;;;;;;;;5094179;28;20304;-66
2022/06/03 01:22:29;;;;;;;8.17;5.33;;;;;;;;;;5099559;28;20242;-65
2022/06/03 01:25:14;;;;;;;5.90;5.10;;;;;;;;;;5099406;28;20207;-66
2022/06/03 01:28:03;;;;;;;6.50;5.80;;;;;;;;;;5099605;28;20236;-65
2022/06/03 01:30:42;;;;;;;5.27;4.53;;;;;;;;;;5073712;28;20244;-65
2022/06/03 01:33:27;;;;;;;7.87;5.00;;;;;;;;;;5099507;28;20204;-66
2022/06/03 01:36:17;;;;;;;7.10;4.80;;;;;;;;;;5099108;28;20224;-66
2022/06/03 01:39:03;;;;;;;9.57;5.27;;;;;;;;;;5098750;28;20621;-66
2022/06/03 01:41:35;;;;;;;6.77;4.77;;;;;;;;;;5099070;28;20212;-65
2022/06/03 01:44:20;;;;;;;8.40;5.30;;;;;;;;;;5099334;28;20208;-64
2022/06/03 01:47:05;;;;;;;7.87;4.97;;;;;;;;;;5098890;28;20271;-66
2022/06/03 01:49:46;;;;;;;9.03;4.83;;;;;;;;;;5089857;28;20260;-67
2022/06/03 01:52:35;;;;;;;5.47;4.97;;;;;;;;;;5093573;28;20212;-66
2022/06/03 01:55:21;;;;;;;6.13;4.93;;;;;;;;;;5097051;28;20640;-66
2022/06/03 01:58:04;;;;;;;6.20;4.70;;;;;;;;;;5098196;28;20208;-66
2022/06/03 02:00:34;;;;;;;5.47;4.40;;;;;;;;;;5099039;28;20223;-66
2022/06/03 02:03:23;;;;;;;8.90;4.50;;;;;;;;;;5099123;28;20205;-66
2022/06/03 02:06:03;;;;;;;4.50;4.10;;;;;;;;;;5098569;28;20225;-66
2022/06/03 02:08:52;;;;;;;6.40;3.93;;;;;;;;;;5098419;28;20245;-66
2022/06/03 02:11:50;;;;;;;4.87;4.30;;;;;;;;;;5093841;28;20241;-66
2022/06/03 02:14:32;;;;;;;6.67;4.43;;;;;;;;;;5029964;28;20254;-66
2022/06/03 02:17:29;;;;;;;6.53;4.27;;;;;;;;;;5070441;28;20707;-66
2022/06/03 02:20:10;;;;;;;6.33;4.97;;;;;;;;;;5097891;28;20710;-66
2022/06/03 02:22:59;;;;;;;6.50;4.90;;;;;;;;;;5098299;28;20581;-65
2022/06/03 02:25:44;;;;;;;6.83;4.13;;;;;;;;;;5098248;28;20238;-66
2022/06/03 02:28:30;;;;;;;6.27;4.50;;;;;;;;;;5098277;28;20317;-66
2022/06/03 02:31:26;;;;;;;8.53;4.83;;;;;;;;;;5098567;28;20211;-66
2022/06/03 02:34:08;;;;;;;6.50;5.13;;;;;;;;;;5098154;28;20216;-65
2022/06/03 02:36:57;;;;;;;7.03;4.93;;;;;;;;;;5098372;28;20267;-66
2022/06/03 02:39:35;;;;;;;5.97;4.90;;;;;;;;;;5097741;28;20710;-66
2022/06/03 02:42:22;;;;;;;6.00;5.10;;;;;;;;;;5098157;28;20297;-66
2022/06/03 02:45:04;;;;;;;5.50;4.77;;;;;;;;;;5095991;28;20263;-66
2022/06/03 02:48:09;;;;;;;7.27;4.63;;;;;;;;;;5097515;28;20230;-66
2022/06/03 02:50:44;;;;;;;7.63;4.93;;;;;;;;;;5087934;28;20215;-65
2022/06/03 02:53:17;;;;;;;6.83;4.87;;;;;;;;;;5097660;28;20203;-66
2022/06/03 02:56:03;;;;;;;5.27;4.50;;;;;;;;;;5097607;28;20230;-65
2022/06/03 02:58:50;;;;;;;7.50;5.03;;;;;;;;;;5097696;28;20649;-70
2022/06/03 03:01:33;;;;;;;8.33;4.83;;;;;;;;;;5097946;28;20214;-69
2022/06/03 03:04:09;;;;;;;8.53;4.90;;;;;;;;;;5097845;28;20718;-70
2022/06/03 03:06:51;;;;;;;7.10;4.83;;;;;;;;;;5097447;28;20680;-69
2022/06/03 03:09:30;;;;;;;7.90;5.20;;;;;;;;;;5097386;28;20221;-69
2022/06/03 03:12:06;;;;;;;8.30;4.90;;;;;;;;;;5097680;28;20202;-69
2022/06/03 03:14:53;;;;;;;9.00;5.40;;;;;;;;;;5097623;28;20230;-69
2022/06/03 03:17:30;;;;;;;6.60;5.63;;;;;;;;;;5097765;28;20249;-69
2022/06/03 03:20:12;;;;;;;8.63;5.60;;;;;;;;;;5097723;28;20245;-69
2022/06/03 03:22:58;;;;;;;6.07;4.80;;;;;;;;;;5097709;28;20240;-70
2022/06/03 03:25:31;;;;;;;5.90;5.30;;;;;;;;;;5091906;28;20743;-69
2022/06/03 03:28:18;;;;;;;14.50;5.43;;;;;;;;;;5097309;28;20217;-70
2022/06/03 03:30:53;;;;;;;6.87;5.40;;;;;;;;;;5101537;28;20198;-69
2022/06/03 03:33:32;;;;;;;6.10;5.20;;;;;;;;;;5101282;28;20288;-69
2022/06/03 03:36:21;;;;;;;7.50;5.60;;;;;;;;;;5099864;28;20213;-69
2022/06/03 03:39:04;;;;;;;7.47;6.00;;;;;;;;;;5097786;28;20612;-69
2022/06/03 03:41:53;;;;;;;6.27;5.47;;;;;;;;;;5103864;28;20198;-70
2022/06/03 03:44:38;;;;;;;8.27;6.07;;;;;;;;;;5099821;28;20233;-71
2022/06/03 03:47:21;;;;;;;6.73;6.00;;;;;;;;;;5085585;28;20271;-72
2022/06/03 03:50:08;;;;;;;7.63;5.43;;;;;;;;;;5102697;28;20761;-71
2022/06/03 03:52:56;;;;;;;6.60;5.90;;;;;;;;;;5108827;28;20225;-72
2022/06/03 03:55:59;;;;;;;7.60;5.90;;;;;;;;;;5098969;28;20267;-72
2022/06/03 03:58:42;;;;;;;6.20;5.53;;;;;;;;;;5101857;28;20232;-72
2022/06/03 04:01:28;;;;;;;7.03;6.00;;;;;;;;;;5101787;28;20237;-72
2022/06/03 04:04:14;;;;;;;8.13;6.13;;;;;;;;;;5087365;28;20233;-72
2022/06/03 04:07:11;;;;;;;6.20;5.57;;;;;;;;;;5096243;28;20221;-72
2022/06/03 04:09:59;;;;;;;9.10;5.90;;;;;;;;;;5101961;28;20198;-77
2022/06/03 04:12:46;;;;;;;9.63;6.10;;;;;;;;;;5101342;28;20221;-76
2022/06/03 04:15:33;;;;;;;8.00;6.20;;;;;;;;;;5100528;28;20205;-79
2022/06/03 04:18:15;;;;;;;7.00;5.83;;;;;;;;;;5100148;28;20201;-80
2022/06/03 04:20:58;;;;;;;11.50;6.73;;;;;;;;;;5101931;28;20193;-79
2022/06/03 04:23:47;;;;;;;8.43;6.07;;;;;;;;;;5097363;28;20201;-79
2022/06/03 04:26:30;;;;;;;8.67;6.37;;;;;;;;;;5080381;28;20229;-78
2022/06/03 04:29:00;;;;;;;9.33;6.40;;;;;;;;;;5097651;28;20227;-78
2022/06/03 04:31:47;;;;;;;13.47;6.47;;;;;;;;;;5099867;28;20201;-80
2022/06/03 04:34:33;;;;;;;9.17;6.80;;;;;;;;;;5106040;28;20218;-80
2022/06/03 04:37:22;;;;;;;12.30;6.73;;;;;;;;;;5099064;28;20252;-72
2022/06/03 04:40:06;;;;;;;7.40;6.47;;;;;;;;;;5098344;28;20225;-71
2022/06/03 04:42:57;;;;;;;9.17;6.73;;;;;;;;;;5104984;28;20695;-72
2022/06/03 04:45:50;;;;;;;7.33;6.40;;;;;;;;;;5092809;28;20599;-72
2022/06/03 04:48:48;;;;;;;12.20;6.83;;;;;;;;;;5086758;28;20563;-70
2022/06/03 04:51:35;;;;;;;10.77;7.73;;;;;;;;;;5029188;28;20283;-77
2022/06/03 04:57:48;;;;;;;7.67;6.37;;;;;;;;;;5085483;28;20230;-72
2022/06/03 05:04:14;;;;;;;9.87;6.47;;;;;;;;;;5087386;28;20172;-74
2022/06/03 05:07:01;;;;;;;9.93;6.23;;;;;;;;;;5080785;28;20229;-74
2022/06/03 05:09:56;;;;;;;8.50;6.77;;;;;;;;;;5100031;28;20246;-75
2022/06/03 05:12:39;;;;;;;8.20;6.40;;;;;;;;;;5108739;28;20200;-74
2022/06/03 05:15:35;;;;;;;7.77;6.13;;;;;;;;;;5107320;28;20205;-73
2022/06/03 05:18:20;;;;;;;11.87;8.00;;;;;;;;;;5108099;28;20197;-74
2022/06/03 05:21:15;;;;;;;7.77;5.97;;;;;;;;;;5107373;28;20232;-74
2022/06/03 05:24:02;;;;;;;7.93;6.20;;;;;;;;;;5105380;28;20233;-74
2022/06/03 05:26:51;;;;;;;6.87;6.07;;;;;;;;;;5107317;28;20255;-74
2022/06/03 05:29:38;;;;;;;7.83;5.87;;;;;;;;;;5103613;28;20294;-74
2022/06/03 05:32:20;;;;;;;6.53;4.83;;;;;;;;;;5102881;28;20229;-73
2022/06/03 05:35:01;;;;;;;4.60;4.20;;;;;;;;;;5096268;28;20205;-74
2022/06/03 05:37:45;;;;;;;8.67;4.50;;;;;;;;;;5098666;28;20247;-75
2022/06/03 05:40:30;;;;;;;10.57;5.17;;;;;;;;;;5100705;28;20213;-74
2022/06/03 05:43:17;;;;;;;8.00;5.87;;;;;;;;;;5088478;28;20718;-73
2022/06/03 05:46:00;;;;;;;5.97;4.57;;;;;;;;;;5119407;28;20235;-73
2022/06/03 05:48:34;;;;;;;7.43;5.33;;;;;;;;;;5116787;28;20327;-74
2022/06/03 05:51:06;;;;;;;9.37;5.60;;;;;;;;;;5109437;28;20205;-74
2022/06/03 05:53:38;;;;;;;8.87;5.73;;;;;;;;;;5112932;28;20205;-74
2022/06/03 05:56:23;;;;;;;7.40;5.97;;;;;;;;;;5098516;28;20661;-64
2022/06/03 05:58:56;;;;;;;5.67;4.77;;;;;;;;;;5083323;28;20553;-63
2022/06/03 06:01:34;;;;;;;8.13;5.30;;;;;;;;;;5098284;28;20233;-63
2022/06/03 06:04:07;;;;;;;7.33;4.90;;;;;;;;;;5097072;28;20297;-64
2022/06/03 06:06:37;;;;;;;11.03;5.27;;;;;;;;;;5098526;28;20243;-63
2022/06/03 06:09:21;;;;;;;5.50;4.53;;;;;;;;;;5097929;28;20236;-63
2022/06/03 06:12:00;;;;;;;6.07;4.73;;;;;;;;;;5098725;28;20203;-64
2022/06/03 06:14:43;;;;;;;8.90;5.53;;;;;;;;;;5091847;28;20247;-63
2022/06/03 06:17:18;;;;;;;9.73;4.80;;;;;;;;;;5094659;28;20249;-64
2022/06/03 06:19:49;;;;;;;8.93;4.50;;;;;;;;;;5097360;28;20246;-63
2022/06/03 06:22:25;;;;;;;10.57;5.33;;;;;;;;;;5096934;28;20284;-64
2022/06/03 06:24:56;;;;;;;6.97;5.20;;;;;;;;;;5094100;28;20199;-64
2022/06/03 06:27:49;;;;;;;7.87;5.23;;;;;;;;;;5097278;28;20562;-65
2022/06/03 06:30:26;;;;;;;8.13;5.50;;;;;;;;;;5094555;28;20230;-73
2022/06/03 06:33:10;;;;;;;5.37;4.60;;;;;;;;;;5097300;28;20201;-72
2022/06/03 06:35:58;;;;;;;6.67;4.83;;;;;;;;;;5092470;28;20249;-72
2022/06/03 06:38:30;;;;;;;7.50;5.33;;;;;;;;;;5097419;28;20224;-73
2022/06/03 06:41:08;;;;;;;8.90;4.97;;;;;;;;;;5095932;28;20253;-72
2022/06/03 06:43:39;;;;;;;7.87;5.10;;;;;;;;;;5097927;28;20204;-73
2022/06/03 06:46:12;;;;;;;6.63;5.10;;;;;;;;;;5117861;28;20233;-73
2022/06/03 06:48:46;;;;;;;8.53;4.67;;;;;;;;;;5097285;28;20583;-73
2022/06/03 06:51:23;;;;;;;7.90;4.97;;;;;;;;;;5099475;28;20268;-73
2022/06/03 06:53:55;;;;;;;8.33;5.53;;;;;;;;;;5117607;28;20238;-73
2022/06/03 06:56:27;;;;;;;7.23;4.77;;;;;;;;;;5117707;28;20262;-73
2022/06/03 06:58:56;;;;;;;7.97;5.00;;;;;;;;;;5118046;28;20203;-73
2022/06/03 07:01:28;;;;;;;9.97;5.50;;;;;;;;;;5117787;28;20211;-64
2022/06/03 07:03:59;;;;;;;6.03;5.13;;;;;;;;;;5117483;28;20219;-64
2022/06/03 07:06:34;;;;;;;6.60;4.53;;;;;;;;;;5099995;28;20229;-64
2022/06/03 07:09:20;;;;;;;9.00;4.73;;;;;;;;;;5094818;28;20754;-63
2022/06/03 07:11:51;;;;;;;9.60;4.97;;;;;;;;;;5102203;28;20722;-63
2022/06/03 07:14:20;;;;;;;12.63;5.13;;;;;;;;;;5100682;28;20713;-63
2022/06/03 07:19:51;;;;;;;12.50;5.67;;;;;;;;;;5096561;28;20197;-64
2022/06/03 07:22:21;;;;;;;5.60;4.97;;;;;;;;;;5097960;28;20224;-65
2022/06/03 07:24:54;;;;;;;7.87;5.10;;;;;;;;;;5096935;28;20667;-65
2022/06/03 07:27:25;;;;;;;7.90;4.57;;;;;;;;;;5097236;28;20262;-64
2022/06/03 07:29:57;;;;;;;6.27;4.40;;;;;;;;;;5095426;28;20253;-65
2022/06/03 07:32:29;;;;;;;9.70;4.50;;;;;;;;;;5097348;28;20234;-65
2022/06/03 07:34:59;;;;;;;6.23;4.87;;;;;;;;;;5096978;28;20205;-65
2022/06/03 07:37:35;;;;;;;10.43;5.13;;;;;;;;;;5096548;28;20224;-65
2022/06/03 07:40:05;;;;;;;9.20;5.30;;;;;;;;;;5098554;28;20243;-64
2022/06/03 07:42:38;;;;;;;5.40;4.90;;;;;;;;;;5094349;28;20284;-63
2022/06/03 07:45:19;;;;;;;8.80;4.83;;;;;;;;;;5100729;28;20204;-63
2022/06/03 07:47:49;;;;;;;6.77;4.83;;;;;;;;;;5099823;28;20210;-63
2022/06/03 07:50:19;;;;;;;7.13;4.70;;;;;;;;;;5097428;28;20270;-63
2022/06/03 07:52:51;;;;;;;7.37;5.63;;;;;;;;;;5096370;28;20569;-63
2022/06/03 07:55:21;;;;;;;5.40;4.33;;;;;;;;;;5083988;28;20209;-63
2022/06/03 07:57:50;;;;;;;8.07;4.50;;;;;;;;;;5096708;28;20237;-65
2022/06/03 08:00:19;;;;;;;11.13;4.40;;;;;;;;;;5097123;28;20203;-66
2022/06/03 08:03:01;;;;;;;6.43;4.70;;;;;;;;;;5096608;28;20844;-66
2022/06/03 08:05:29;;;;;;;5.60;3.83;;;;;;;;;;5098877;28;20251;-67
2022/06/03 08:11:00;;;;;;;7.80;4.57;;;;;;;;;;5104707;28;20223;-67
2022/06/03 08:13:31;;;;;;;7.83;4.70;;;;;;;;;;5103322;28;20248;-64
2022/06/03 08:16:00;;;;;;;6.10;4.20;;;;;;;;;;5107674;28;20252;-65
2022/06/03 08:18:31;;;;;;;5.07;4.60;;;;;;;;;;5107388;28;20206;-66
2022/06/03 08:21:02;;;;;;;6.97;4.30;;;;;;;;;;5110589;28;20199;-66
2022/06/03 08:23:33;;;;;;;9.97;4.37;;;;;;;;;;5106445;28;20672;-65
2022/06/03 08:26:03;;;;;;;5.53;4.90;;;;;;;;;;5108013;28;20770;-65
2022/06/03 08:28:32;;;;;;;5.10;4.60;;;;;;;;;;5109076;28;20222;-67
2022/06/03 08:31:01;;;;;;;7.10;4.47;;;;;;;;;;5108242;28;20330;-66
2022/06/03 08:33:35;;;;;;;7.63;4.47;;;;;;;;;;5104937;28;20260;-72
2022/06/03 08:36:03;;;;;;;5.57;4.57;;;;;;;;;;5099524;28;20222;-66
2022/06/03 08:38:34;;;;;;;6.70;4.47;;;;;;;;;;5098041;28;20238;-65
2022/06/03 08:41:12;;;;;;;4.63;4.23;;;;;;;;;;5101241;28;20202;-66
2022/06/03 08:43:54;;;;;;;6.97;4.70;;;;;;;;;;5100588;28;20229;-66
2022/06/03 08:46:25;;;;;;;5.37;4.47;;;;;;;;;;5098556;28;20234;-66
2022/06/03 08:49:00;;;;;;;7.73;4.60;;;;;;;;;;5120032;27;20332;-65
2022/06/03 08:51:34;;;;;;;5.63;4.83;;;;;;;;;;5120492;28;20209;-63
2022/06/03 08:54:04;;;;;;;8.63;5.27;;;;;;;;;;5119726;28;20256;-63
2022/06/03 08:56:34;;;;;;;7.57;5.17;;;;;;;;;;5119969;28;20665;-65
2022/06/03 08:59:03;;;;;;;10.50;5.47;;;;;;;;;;5111512;28;20233;-65
2022/06/03 09:01:34;;;;;;;8.73;5.50;;;;;;;;;;5098818;28;20212;-65
2022/06/03 09:04:09;;;;;;;8.80;5.40;;;;;;;;;;5101833;28;20652;-72
2022/06/03 09:06:42;;;;;;;7.50;6.17;;;;;;;;;;5096448;28;20231;-73
2022/06/03 09:09:16;;;;;;;7.13;4.70;;;;;;;;;;5101199;28;20570;-72
2022/06/03 09:11:47;;;;;;;5.43;4.93;;;;;;;;;;5096586;28;20298;-72
2022/06/03 09:14:19;;;;;;;9.67;6.13;;;;;;;;;;5099215;28;20228;-69
2022/06/03 09:16:47;;;;;;;7.93;5.30;;;;;;;;;;5100339;28;20325;-68
2022/06/03 09:19:20;;;;;;;8.07;6.87;;;;;;;;;;5100128;28;20292;-66
2022/06/03 09:21:51;;;;;;;8.80;7.20;;;;;;;;;;5098844;28;20633;-68
2022/06/03 09:24:21;;;;;;;8.00;6.30;;;;;;;;;;5098085;28;20208;-67
2022/06/03 09:26:51;;;;;;;6.73;6.07;;;;;;;;;;5101159;28;20306;-66
2022/06/03 09:29:20;;;;;;;6.33;5.73;;;;;;;;;;5098323;28;20201;-69
2022/06/03 09:31:50;;;;;;;7.23;5.60;;;;;;;;;;5098870;28;20266;-67
2022/06/03 09:34:21;;;;;;;6.83;5.83;;;;;;;;;;5100484;28;20200;-68
2022/06/03 09:36:50;;;;;;;8.43;5.70;;;;;;;;;;5101783;28;20251;-68
2022/06/03 09:39:38;;;;;;;8.17;5.63;;;;;;;;;;5098124;28;20260;-67
2022/06/03 09:42:07;;;;;;;9.00;6.10;;;;;;;;;;5098560;28;20223;-67
2022/06/03 09:44:35;;;;;;;8.13;6.67;;;;;;;;;;5099440;28;20211;-68
2022/06/03 09:47:05;;;;;;;12.33;6.10;;;;;;;;;;5102839;28;20256;-67
2022/06/03 09:49:34;;;;;;;10.33;5.80;;;;;;;;;;5098558;28;20666;-66
2022/06/03 09:52:07;;;;;;;8.10;6.87;;;;;;;;;;5099012;28;20242;-72
2022/06/03 09:54:36;;;;;;;7.00;5.87;;;;;;;;;;5098043;28;20255;-67
2022/06/03 09:57:08;;;;;;;9.97;6.10;;;;;;;;;;5098807;28;20248;-67
2022/06/03 09:59:37;;;;;;;11.00;6.73;;;;;;;;;;5096117;28;20201;-67
2022/06/03 10:02:06;;;;;;;10.23;6.57;;;;;;;;;;5102321;28;20227;-68
2022/06/03 10:04:36;;;;;;;11.43;6.33;;;;;;;;;;5117153;28;20306;-68
2022/06/03 10:07:04;;;;;;;7.73;6.87;;;;;;;;;;5116902;28;20220;-67
2022/06/03 10:18:01;;;;;;;14.50;8.07;;;;;;;;;;5098313;28;20223;-69
2022/06/03 10:20:30;;;;;;;12.63;6.73;;;;;;;;;;5097953;28;20670;-68
2022/06/03 10:22:59;;;;;;;10.80;7.37;;;;;;;;;;5097632;28;20255;-68
2022/06/03 10:25:27;;;;;;;11.63;6.87;;;;;;;;;;5098032;28;20716;-68
2022/06/03 10:27:56;;;;;;;10.23;6.73;;;;;;;;;;5097614;28;20209;-68
2022/06/03 10:30:27;;;;;;;10.57;7.63;;;;;;;;;;5097693;28;20263;-68
2022/06/03 10:32:55;;;;;;;12.60;10.07;;;;;;;;;;5100003;28;20207;-68
2022/06/03 10:35:27;;;;;;;13.87;8.83;;;;;;;;;;5118479;27;20298;-68
2022/06/03 10:37:57;;;;;;;15.93;10.13;;;;;;;;;;5118102;28;20212;-71
2022/06/03 10:40:32;;;;;;;15.27;8.57;;;;;;;;;;5095853;28;20201;-67
2022/06/03 10:43:01;;;;;;;12.67;10.03;;;;;;;;;;5099619;28;20213;-69
2022/06/03 10:45:31;;;;;;;11.67;8.97;;;;;;;;;;5097318;28;20672;-68
2022/06/03 10:47:59;;;;;;;13.07;8.77;;;;;;;;;;5097637;28;20271;-67
2022/06/03 10:50:29;;;;;;;13.03;9.13;;;;;;;;;;5097276;28;20268;-66
2022/06/03 11:01:31;;;;;;;9.20;4.63;;;;;;;;;;5097883;28;20193;-68
2022/06/03 11:03:59;;;;;;;7.97;5.10;;;;;;;;;;5097578;28;20204;-68
2022/06/03 11:06:33;;;;;;;4.47;4.07;;;;;;;;;;5097388;28;20579;-68
2022/06/03 11:09:03;;;;;;;8.83;4.00;;;;;;;;;;5097037;28;20269;-68
2022/06/03 11:11:37;;;;;;;10.70;5.20;;;;;;;;;;5097784;28;20225;-68
2022/06/03 11:14:23;;;;;;;9.00;4.43;;;;;;;;;;5095832;28;20265;-66
2022/06/03 11:16:52;;;;;;;7.50;3.70;;;;;;;;;;5097632;28;20255;-65
2022/06/03 11:19:21;;;;;;;6.60;3.80;;;;;;;;;;5097644;28;20242;-65
2022/06/03 11:21:51;;;;;;;9.50;3.70;;;;;;;;;;5097550;28;20255;-65
2022/06/03 11:24:21;;;;;;;5.57;4.03;;;;;;;;;;5096574;28;20234;-67
2022/06/03 11:26:49;;;;;;;7.20;3.63;;;;;;;;;;5097719;28;20262;-66
2022/06/03 11:29:19;;;;;;;4.13;3.73;;;;;;;;;;5099525;28;20269;-66
2022/06/03 11:31:49;;;;;;;7.30;3.93;;;;;;;;;;5100153;28;20228;-67
2022/06/03 11:34:20;;;;;;;8.17;3.83;;;;;;;;;;5094986;28;20619;-66
2022/06/03 11:36:51;;;;;;;8.90;3.87;;;;;;;;;;5098865;28;20222;-67
2022/06/03 11:39:31;;;;;;;7.47;3.80;;;;;;;;;;5097778;28;20659;-68
2022/06/03 11:42:03;;;;;;;4.90;3.70;;;;;;;;;;5100498;28;20192;-68
2022/06/03 11:44:36;;;;;;;5.13;3.90;;;;;;;;;;5097494;28;20199;-68
2022/06/03 11:47:10;;;;;;;13.70;4.17;;;;;;;;;;5096863;28;20220;-68
2022/06/03 11:49:39;;;;;;;6.03;3.23;;;;;;;;;;5101064;28;20235;-68
2022/06/03 11:52:08;;;;;;;4.30;3.20;;;;;;;;;;5112707;28;20240;-68
2022/06/03 11:54:37;;;;;;;4.93;2.97;;;;;;;;;;5100286;28;20658;-69
2022/06/03 11:57:07;;;;;;;3.83;2.97;;;;;;;;;;5101934;28;20688;-69
2022/06/03 11:59:39;;;;;;;6.00;3.10;;;;;;;;;;5102657;28;20674;-69
2022/06/03 12:02:10;;;;;;;9.60;3.07;;;;;;;;;;5100892;28;20190;-69
2022/06/03 12:04:45;;;;;;;4.70;2.40;;;;;;;;;;5101286;28;20197;-71
2022/06/03 12:07:19;;;;;;;4.67;2.77;;;;;;;;;;5114408;28;20281;-71
2022/06/03 12:09:50;;;;;;;4.73;3.13;;;;;;;;;;5120861;28;20208;-71
2022/06/03 12:15:27;;;;;;;5.33;2.80;;;;;;;;;;5105505;28;20213;-69
2022/06/03 12:17:59;;;;;;;3.83;2.50;;;;;;;;;;5100640;28;20204;-69
2022/06/03 12:20:37;;;;;;;6.33;3.00;;;;;;;;;;5100566;28;20217;-69
2022/06/03 12:23:26;;;;;;;6.47;2.63;;;;;;;;;;5100788;28;20600;-69
2022/06/03 12:26:07;;;;;;;8.77;2.70;;;;;;;;;;5091183;28;20227;-69
2022/06/03 12:28:45;;;;;;;5.67;3.03;;;;;;;;;;5100311;28;20239;-69
2022/06/03 12:31:16;;;;;;;9.47;2.80;;;;;;;;;;5100195;28;20229;-68
2022/06/03 12:33:50;;;;;;;9.50;3.73;;;;;;;;;;5098568;28;20284;-68
2022/06/03 12:36:37;;;;;;;6.10;2.60;;;;;;;;;;5100272;28;20263;-68
2022/06/03 12:39:21;;;;;;;6.83;2.60;;;;;;;;;;5096937;28;20268;-69
2022/06/03 12:42:12;;;;;;;9.20;2.93;;;;;;;;;;5101887;28;20195;-68
2022/06/03 12:44:50;;;;;;;7.17;2.90;;;;;;;;;;5106226;28;20203;-67
2022/06/03 12:47:25;;;;;;;4.20;2.60;;;;;;;;;;5120292;27;20655;-67
2022/06/03 12:49:54;;;;;;;6.57;2.30;;;;;;;;;;5087802;28;20278;-69
2022/06/03 12:52:36;;;;;;;7.23;2.50;;;;;;;;;;5099427;28;20596;-68
2022/06/03 12:55:06;;;;;;;4.67;2.50;;;;;;;;;;5099700;28;20594;-69
2022/06/03 12:57:39;;;;;;;6.07;2.43;;;;;;;;;;5099737;28;20615;-68
2022/06/03 13:00:12;;;;;;;7.73;2.40;;;;;;;;;;5100094;28;20233;-69
2022/06/03 13:02:49;;;;;;;3.80;2.13;;;;;;;;;;5098401;28;20560;-69
2022/06/03 13:05:27;;;;;;;4.57;2.40;;;;;;;;;;5101176;28;20203;-69
2022/06/03 13:08:00;;;;;;;8.00;3.13;;;;;;;;;;5099850;28;20200;-70
2022/06/03 13:10:29;;;;;;;8.23;2.77;;;;;;;;;;5100393;28;20212;-71
2022/06/03 13:13:19;;;;;;;9.57;3.43;;;;;;;;;;5104508;28;20250;-70
2022/06/03 13:15:51;;;;;;;8.87;2.67;;;;;;;;;;5107295;28;20295;-69
2022/06/03 13:18:43;;;;;;;9.43;2.83;;;;;;;;;;5110775;28;20236;-69
2022/06/03 13:21:22;;;;;;;8.83;2.50;;;;;;;;;;5098054;28;20199;-69
2022/06/03 13:23:54;;;;;;;8.87;3.17;;;;;;;;;;5102029;28;20212;-69
2022/06/03 13:26:41;;;;;;;6.18;3.08;;;;;;;;;;5096939;28;20222;-69
2022/06/03 13:29:13;;;;;;;7.57;3.00;;;;;;;;;;5100354;28;20195;-69
2022/06/03 13:32:02;;;;;;;7.40;3.27;;;;;;;;;;5099014;28;20222;-71
2022/06/03 13:34:31;;;;;;;9.65;3.03;;;;;;;;;;5098347;28;20201;-68
2022/06/03 13:37:18;;;;;;;6.60;3.23;;;;;;;;;;5099676;28;20227;-69
2022/06/03 13:40:04;;;;;;;6.22;2.70;;;;;;;;;;5103971;28;20223;-70
2022/06/03 13:43:06;;;;;;;7.43;3.17;;;;;;;;;;5099027;28;20217;-70
2022/06/03 13:45:52;;;;;;;5.18;2.65;;;;;;;;;;5035955;28;20228;-70
2022/06/03 13:48:28;;;;;;;6.80;2.80;;;;;;;;;;5036738;28;20235;-70
2022/06/03 13:50:56;;;;;;;10.05;2.90;;;;;;;;;;5073588;28;20643;-70
2022/06/03 13:53:26;;;;;;;7.53;2.95;;;;;;;;;;5098421;28;20295;-70
2022/06/03 13:55:55;;;;;;;6.07;2.67;;;;;;;;;;5096032;28;20219;-70
2022/06/03 13:58:25;;;;;;;10.20;3.17;;;;;;;;;;5101464;28;20212;-70
2022/06/03 14:00:57;;;;;;;9.57;2.88;;;;;;;;;;5116616;28;20204;-71
2022/06/03 14:03:29;;;;;;;9.93;2.80;;;;;;;;;;5098392;28;20215;-70
2022/06/03 14:05:58;;;;;;;9.88;3.15;;;;;;;;;;5098375;28;20228;-70
2022/06/03 14:08:28;;;;;;;7.30;2.47;;;;;;;;;;5097976;28;20650;-70
2022/06/03 14:11:00;;;;;;;9.63;2.90;;;;;;;;;;5098676;28;20240;-71
2022/06/03 14:13:33;;;;;;;11.18;3.35;;;;;;;;;;5098473;28;20641;-71
2022/06/03 14:16:04;;;;;;;10.93;3.63;;;;;;;;;;5091507;28;20249;-71
2022/06/03 14:18:51;;;;;;;9.73;2.75;;;;;;;;;;5085693;28;20252;-71
2022/06/03 14:21:41;;;;;;;10.52;2.83;;;;;;;;;;5089010;28;20217;-70
2022/06/03 14:24:14;;;;;;;14.60;3.90;;;;;;;;;;5096064;28;20602;-71
2022/06/03 14:26:45;;;;;;;7.93;2.90;;;;;;;;;;5090402;28;20235;-71
2022/06/03 14:29:15;;;;;;;7.20;2.78;;;;;;;;;;5098136;28;20244;-69
2022/06/03 14:31:47;;;;;;;10.88;3.70;;;;;;;;;;5098120;28;20239;-65
2022/06/03 14:34:19;;;;;;;10.60;2.92;;;;;;;;;;5098078;28;20208;-65
2022/06/03 14:36:48;;;;;;;12.15;3.35;;;;;;;;;;5098086;28;20251;-65
2022/06/03 14:39:19;;;;;;;6.10;3.03;;;;;;;;;;5096471;28;20794;-65
2022/06/03 14:41:53;;;;;;;8.25;3.83;;;;;;;;;;5097742;28;20730;-72
2022/06/03 14:44:23;;;;;;;6.25;2.70;;;;;;;;;;5097788;28;20237;-71
2022/06/03 14:46:55;;;;;;;10.68;2.97;;;;;;;;;;5097876;28;20264;-72
2022/06/03 14:49:26;;;;;;;10.57;3.78;;;;;;;;;;5097695;28;20268;-72
2022/06/03 14:51:55;;;;;;;12.80;3.75;;;;;;;;;;5097691;28;20676;-72
2022/06/03 14:54:26;;;;;;;4.80;2.90;;;;;;;;;;5097396;28;20213;-71
2022/06/03 14:56:55;;;;;;;6.13;2.75;;;;;;;;;;5097921;28;20264;-71
2022/06/03 14:59:33;;;;;;;5.13;3.00;;;;;;;;;;5097608;28;20240;-71
2022/06/03 15:02:21;;;;;;;8.43;3.08;;;;;;;;;;5097420;28;20243;-71
2022/06/03 15:04:54;;;;;;;7.50;2.58;;;;;;;;;;5098310;28;20210;-71
2022/06/03 15:07:25;;;;;;;10.98;2.83;;;;;;;;;;5099101;28;20255;-71
2022/06/03 15:09:55;;;;;;;8.85;2.78;;;;;;;;;;5098839;28;20208;-72
2022/06/03 15:12:27;;;;;;;6.57;3.42;;;;;;;;;;5098507;28;20627;-71
2022/06/03 15:14:55;;;;;;;9.05;2.88;;;;;;;;;;5099399;28;20228;-72
2022/06/03 15:17:24;;;;;;;8.30;2.63;;;;;;;;;;5100703;28;20256;-71
2022/06/03 15:19:56;;;;;;;12.85;3.58;;;;;;;;;;5108164;28;20609;-72
2022/06/03 15:22:27;;;;;;;7.72;2.97;;;;;;;;;;5100540;28;20234;-73
2022/06/03 15:24:57;;;;;;;13.07;3.50;;;;;;;;;;5095733;28;20205;-71
2022/06/03 15:27:28;;;;;;;7.82;3.22;;;;;;;;;;5102164;28;20278;-71
2022/06/03 15:29:56;;;;;;;9.27;2.95;;;;;;;;;;5099808;28;20205;-71
2022/06/03 15:32:25;;;;;;;9.10;2.90;;;;;;;;;;5102297;28;20255;-72
2022/06/03 15:35:01;;;;;;;6.80;2.40;;;;;;;;;;5098418;28;20575;-71
2022/06/03 15:37:30;;;;;;;8.15;3.33;;;;;;;;;;5102143;28;20215;-70
2022/06/03 15:39:58;;;;;;;13.02;2.70;;;;;;;;;;5099401;28;20675;-71
2022/06/03 15:42:28;;;;;;;6.70;3.35;;;;;;;;;;5102019;28;20262;-71
2022/06/03 15:44:58;;;;;;;9.57;2.58;;;;;;;;;;5101089;28;20204;-70
2022/06/03 15:47:33;;;;;;;7.93;2.67;;;;;;;;;;5100559;28;20236;-71
2022/06/03 15:50:05;;;;;;;9.13;3.17;;;;;;;;;;5101941;28;20348;-71
2022/06/03 15:52:40;;;;;;;11.85;3.35;;;;;;;;;;5102852;28;20211;-72
2022/06/03 15:55:08;;;;;;;9.20;2.72;;;;;;;;;;5103738;28;20700;-72
2022/06/03 15:57:46;;;;;;;9.15;2.95;;;;;;;;;;5100906;28;20607;-71
2022/06/03 16:00:15;;;;;;;6.72;3.22;;;;;;;;;;5099301;28;20206;-72
2022/06/03 16:02:52;;;;;;;7.88;3.65;;;;;;;;;;5101797;28;20195;-71
2022/06/03 16:05:40;;;;;;;7.10;2.45;;;;;;;;;;5101335;28;20228;-71
2022/06/03 16:08:14;;;;;;;10.80;2.88;;;;;;;;;;5105296;28;20197;-71
2022/06/03 16:10:45;;;;;;;10.98;3.50;;;;;;;;;;5108264;28;20230;-72
2022/06/03 16:13:20;;;;;;;6.43;2.53;;;;;;;;;;5109004;27;20258;-73